Terminal Aerodrome Forecast
Issued by NWS

Home | Current Version | Previous Version | Text Only | Print | Product List | Glossary On
Versions: 1 2 3 4 5 6 7 8 9 10 11 12 13
056
FTUS45 KTFX 251730
TAFHLN
TAF
KHLN 251730Z 2518/2618 27009KT P6SM BKN070
     FM252100 31011KT P6SM SCT070 BKN090=

USA.gov is the U.S. government's official web portal to all federal, state and local government web resources and services.